sensor_id;sensor_type;location;lat;lon;timestamp;temperature;humidity
64817;DHT22;53289;45.602;11.904;2023-01-31T00:02:11;-0.80;74.70
64817;DHT22;53289;45.602;11.904;2023-01-31T00:04:37;-0.90;74.70
64817;DHT22;53289;45.602;11.904;2023-01-31T00:07:03;-0.90;75.10
64817;DHT22;53289;45.602;11.904;2023-01-31T00:09:29;-0.90;75.60
64817;DHT22;53289;45.602;11.904;2023-01-31T00:11:55;-0.90;75.60
64817;DHT22;53289;45.602;11.904;2023-01-31T00:14:21;-1.00;75.80
64817;DHT22;53289;45.602;11.904;2023-01-31T00:20:10;-1.10;75.10
64817;DHT22;53289;45.602;11.904;2023-01-31T00:22:36;-1.00;75.50
64817;DHT22;53289;45.602;11.904;2023-01-31T00:25:03;-1.10;75.10
64817;DHT22;53289;45.602;11.904;2023-01-31T00:27:29;-1.10;75.30
64817;DHT22;53289;45.602;11.904;2023-01-31T00:29:55;-1.10;75.60
64817;DHT22;53289;45.602;11.904;2023-01-31T00:32:21;-1.20;75.60
64817;DHT22;53289;45.602;11.904;2023-01-31T00:34:47;-1.20;75.10
64817;DHT22;53289;45.602;11.904;2023-01-31T00:37:13;-1.20;75.40
64817;DHT22;53289;45.602;11.904;2023-01-31T00:39:39;-1.20;75.80
64817;DHT22;53289;45.602;11.904;2023-01-31T00:42:05;-1.10;76.00
64817;DHT22;53289;45.602;11.904;2023-01-31T00:44:31;-1.10;75.90
64817;DHT22;53289;45.602;11.904;2023-01-31T00:46:57;-1.10;75.50
64817;DHT22;53289;45.602;11.904;2023-01-31T00:49:23;-1.10;75.40
64817;DHT22;53289;45.602;11.904;2023-01-31T00:51:49;-1.10;75.70
64817;DHT22;53289;45.602;11.904;2023-01-31T00:54:14;-1.20;75.90
64817;DHT22;53289;45.602;11.904;2023-01-31T00:56:40;-1.20;76.00
64817;DHT22;53289;45.602;11.904;2023-01-31T00:59:06;-1.30;75.60
64817;DHT22;53289;45.602;11.904;2023-01-31T01:01:34;-1.30;75.40
64817;DHT22;53289;45.602;11.904;2023-01-31T01:04:00;-1.30;75.70
64817;DHT22;53289;45.602;11.904;2023-01-31T01:06:27;-1.30;76.00
64817;DHT22;53289;45.602;11.904;2023-01-31T01:08:54;-1.30;75.70
64817;DHT22;53289;45.602;11.904;2023-01-31T01:11:26;-1.40;76.30
64817;DHT22;53289;45.602;11.904;2023-01-31T01:13:52;-1.40;76.30
64817;DHT22;53289;45.602;11.904;2023-01-31T01:16:33;-1.50;76.20
64817;DHT22;53289;45.602;11.904;2023-01-31T01:19:08;-1.50;75.70
64817;DHT22;53289;45.602;11.904;2023-01-31T01:21:35;-1.50;75.90
64817;DHT22;53289;45.602;11.904;2023-01-31T01:24:05;-1.60;76.30
64817;DHT22;53289;45.602;11.904;2023-01-31T01:26:32;-1.60;76.30
64817;DHT22;53289;45.602;11.904;2023-01-31T01:29:00;-1.60;76.30
64817;DHT22;53289;45.602;11.904;2023-01-31T01:31:26;-1.60;76.30
64817;DHT22;53289;45.602;11.904;2023-01-31T01:33:56;-1.60;76.40
64817;DHT22;53289;45.602;11.904;2023-01-31T01:36:23;-1.60;76.40
64817;DHT22;53289;45.602;11.904;2023-01-31T01:38:51;-1.60;76.30
64817;DHT22;53289;45.602;11.904;2023-01-31T01:41:17;-1.60;76.60
64817;DHT22;53289;45.602;11.904;2023-01-31T01:43:55;-1.60;76.10
64817;DHT22;53289;45.602;11.904;2023-01-31T01:48:53;-1.70;76.60
64817;DHT22;53289;45.602;11.904;2023-01-31T01:51:21;-1.70;76.40
64817;DHT22;53289;45.602;11.904;2023-01-31T01:53:52;-1.70;76.70
64817;DHT22;53289;45.602;11.904;2023-01-31T01:56:26;-1.80;76.40
64817;DHT22;53289;45.602;11.904;2023-01-31T01:58:55;-1.80;76.50
64817;DHT22;53289;45.602;11.904;2023-01-31T02:01:23;-1.80;77.00
64817;DHT22;53289;45.602;11.904;2023-01-31T02:03:52;-1.80;76.90
64817;DHT22;53289;45.602;11.904;2023-01-31T02:06:18;-1.70;76.90
64817;DHT22;53289;45.602;11.904;2023-01-31T02:08:44;-1.70;77.00
64817;DHT22;53289;45.602;11.904;2023-01-31T02:13:51;-1.80;76.70
64817;DHT22;53289;45.602;11.904;2023-01-31T02:16:18;-1.90;77.00
64817;DHT22;53289;45.602;11.904;2023-01-31T02:18:44;-2.00;77.00
64817;DHT22;53289;45.602;11.904;2023-01-31T02:43:06;-2.00;77.50
64817;DHT22;53289;45.602;11.904;2023-01-31T02:48:52;-2.10;77.40
64817;DHT22;53289;45.602;11.904;2023-01-31T02:51:21;-2.10;77.50
64817;DHT22;53289;45.602;11.904;2023-01-31T02:54:12;-2.10;77.50
64817;DHT22;53289;45.602;11.904;2023-01-31T02:56:42;-2.20;77.50
64817;DHT22;53289;45.602;11.904;2023-01-31T02:59:18;-2.20;77.80
64817;DHT22;53289;45.602;11.904;2023-01-31T03:01:50;-2.30;77.50
64817;DHT22;53289;45.602;11.904;2023-01-31T03:04:19;-2.30;77.30
64817;DHT22;53289;45.602;11.904;2023-01-31T03:06:56;-2.40;77.50
64817;DHT22;53289;45.602;11.904;2023-01-31T03:15:37;-2.40;77.50
64817;DHT22;53289;45.602;11.904;2023-01-31T03:19:22;-2.50;77.70
64817;DHT22;53289;45.602;11.904;2023-01-31T03:21:29;-2.50;77.80
64817;DHT22;53289;45.602;11.904;2023-01-31T03:23:58;-2.50;77.60
64817;DHT22;53289;45.602;11.904;2023-01-31T03:26:25;-2.50;78.60
64817;DHT22;53289;45.602;11.904;2023-01-31T03:28:53;-2.50;78.00
64817;DHT22;53289;45.602;11.904;2023-01-31T03:31:38;-2.60;77.90
64817;DHT22;53289;45.602;11.904;2023-01-31T03:34:06;-2.60;77.70
64817;DHT22;53289;45.602;11.904;2023-01-31T03:42:37;-2.80;77.90
64817;DHT22;53289;45.602;11.904;2023-01-31T03:45:43;-2.70;77.70
64817;DHT22;53289;45.602;11.904;2023-01-31T03:48:02;-2.60;78.10
64817;DHT22;53289;45.602;11.904;2023-01-31T03:50:42;-2.60;78.10
64817;DHT22;53289;45.602;11.904;2023-01-31T03:55:52;-2.50;78.10
64817;DHT22;53289;45.602;11.904;2023-01-31T03:58:25;-2.50;78.10
64817;DHT22;53289;45.602;11.904;2023-01-31T04:00:54;-2.50;77.80
64817;DHT22;53289;45.602;11.904;2023-01-31T04:03:29;-2.60;77.80
64817;DHT22;53289;45.602;11.904;2023-01-31T04:05:56;-2.50;78.00
64817;DHT22;53289;45.602;11.904;2023-01-31T04:08:23;-2.50;78.00
64817;DHT22;53289;45.602;11.904;2023-01-31T04:10:50;-2.40;78.10
64817;DHT22;53289;45.602;11.904;2023-01-31T04:13:16;-2.40;78.30
64817;DHT22;53289;45.602;11.904;2023-01-31T04:15:42;-2.30;78.20
64817;DHT22;53289;45.602;11.904;2023-01-31T04:18:08;-2.30;78.10
64817;DHT22;53289;45.602;11.904;2023-01-31T04:20:33;-2.30;78.80
64817;DHT22;53289;45.602;11.904;2023-01-31T04:22:59;-2.40;78.20
64817;DHT22;53289;45.602;11.904;2023-01-31T04:25:25;-2.40;77.80
64817;DHT22;53289;45.602;11.904;2023-01-31T04:27:51;-2.50;77.80
64817;DHT22;53289;45.602;11.904;2023-01-31T04:30:17;-2.40;78.10
64817;DHT22;53289;45.602;11.904;2023-01-31T04:32:43;-2.50;78.30
64817;DHT22;53289;45.602;11.904;2023-01-31T04:35:09;-2.50;78.30
64817;DHT22;53289;45.602;11.904;2023-01-31T04:37:34;-2.60;78.40
64817;DHT22;53289;45.602;11.904;2023-01-31T04:40:00;-2.60;78.30
64817;DHT22;53289;45.602;11.904;2023-01-31T04:42:26;-2.60;78.60
64817;DHT22;53289;45.602;11.904;2023-01-31T04:44:52;-2.50;78.40
64817;DHT22;53289;45.602;11.904;2023-01-31T04:47:19;-2.60;78.50
64817;DHT22;53289;45.602;11.904;2023-01-31T04:49:44;-2.60;78.70
64817;DHT22;53289;45.602;11.904;2023-01-31T04:52:10;-2.70;79.00
64817;DHT22;53289;45.602;11.904;2023-01-31T04:54:36;-2.70;78.40
64817;DHT22;53289;45.602;11.904;2023-01-31T04:57:03;-2.80;78.30
64817;DHT22;53289;45.602;11.904;2023-01-31T04:59:29;-2.80;78.50
64817;DHT22;53289;45.602;11.904;2023-01-31T05:01:54;-2.80;78.50
64817;DHT22;53289;45.602;11.904;2023-01-31T05:04:20;-2.80;78.50
64817;DHT22;53289;45.602;11.904;2023-01-31T05:06:50;-2.80;78.60
64817;DHT22;53289;45.602;11.904;2023-01-31T05:09:16;-2.80;78.70
64817;DHT22;53289;45.602;11.904;2023-01-31T05:11:43;-2.80;79.10
64817;DHT22;53289;45.602;11.904;2023-01-31T05:14:09;-2.80;78.80
64817;DHT22;53289;45.602;11.904;2023-01-31T05:16:35;-2.70;78.50
64817;DHT22;53289;45.602;11.904;2023-01-31T05:19:01;-2.70;78.70
64817;DHT22;53289;45.602;11.904;2023-01-31T05:21:27;-2.80;78.60
64817;DHT22;53289;45.602;11.904;2023-01-31T05:23:53;-2.80;78.70
64817;DHT22;53289;45.602;11.904;2023-01-31T05:26:19;-2.90;78.50
64817;DHT22;53289;45.602;11.904;2023-01-31T05:28:45;-2.90;78.50
64817;DHT22;53289;45.602;11.904;2023-01-31T05:31:11;-2.90;78.40
64817;DHT22;53289;45.602;11.904;2023-01-31T05:33:38;-3.00;78.50
64817;DHT22;53289;45.602;11.904;2023-01-31T05:36:04;-3.00;78.60
64817;DHT22;53289;45.602;11.904;2023-01-31T05:38:30;-3.00;78.50
64817;DHT22;53289;45.602;11.904;2023-01-31T05:40:56;-3.00;78.70
64817;DHT22;53289;45.602;11.904;2023-01-31T05:43:22;-3.00;78.90
64817;DHT22;53289;45.602;11.904;2023-01-31T05:45:48;-3.00;78.90
64817;DHT22;53289;45.602;11.904;2023-01-31T05:48:14;-3.10;78.70
64817;DHT22;53289;45.602;11.904;2023-01-31T05:50:40;-3.10;78.70
64817;DHT22;53289;45.602;11.904;2023-01-31T05:53:06;-3.10;78.70
64817;DHT22;53289;45.602;11.904;2023-01-31T05:55:31;-3.10;78.90
64817;DHT22;53289;45.602;11.904;2023-01-31T05:57:57;-3.00;78.90
64817;DHT22;53289;45.602;11.904;2023-01-31T06:00:25;-2.90;79.00
64817;DHT22;53289;45.602;11.904;2023-01-31T06:02:51;-2.80;79.10
64817;DHT22;53289;45.602;11.904;2023-01-31T06:05:17;-2.80;79.30
64817;DHT22;53289;45.602;11.904;2023-01-31T06:07:43;-2.70;79.20
64817;DHT22;53289;45.602;11.904;2023-01-31T06:10:10;-2.60;79.40
64817;DHT22;53289;45.602;11.904;2023-01-31T06:12:36;-2.60;79.10
64817;DHT22;53289;45.602;11.904;2023-01-31T06:15:03;-2.50;79.10
64817;DHT22;53289;45.602;11.904;2023-01-31T06:17:29;-2.50;79.00
64817;DHT22;53289;45.602;11.904;2023-01-31T06:19:54;-2.50;79.60
64817;DHT22;53289;45.602;11.904;2023-01-31T06:22:20;-2.50;79.30
64817;DHT22;53289;45.602;11.904;2023-01-31T06:24:46;-2.60;79.40
64817;DHT22;53289;45.602;11.904;2023-01-31T06:27:12;-2.60;79.20
64817;DHT22;53289;45.602;11.904;2023-01-31T06:29:38;-2.70;79.30
64817;DHT22;53289;45.602;11.904;2023-01-31T06:32:04;-2.70;78.90
64817;DHT22;53289;45.602;11.904;2023-01-31T06:34:30;-2.70;78.70
64817;DHT22;53289;45.602;11.904;2023-01-31T06:36:56;-2.70;79.10
64817;DHT22;53289;45.602;11.904;2023-01-31T06:39:23;-2.80;78.80
64817;DHT22;53289;45.602;11.904;2023-01-31T06:41:49;-2.70;78.90
64817;DHT22;53289;45.602;11.904;2023-01-31T06:44:15;-2.80;79.30
64817;DHT22;53289;45.602;11.904;2023-01-31T06:46:41;-2.80;79.00
64817;DHT22;53289;45.602;11.904;2023-01-31T06:49:07;-2.80;79.10
64817;DHT22;53289;45.602;11.904;2023-01-31T06:51:33;-2.80;78.90
64817;DHT22;53289;45.602;11.904;2023-01-31T06:53:59;-2.80;78.90
64817;DHT22;53289;45.602;11.904;2023-01-31T06:56:24;-2.80;78.90
64817;DHT22;53289;45.602;11.904;2023-01-31T06:58:50;-2.70;78.90
64817;DHT22;53289;45.602;11.904;2023-01-31T07:01:16;-2.60;79.10
64817;DHT22;53289;45.602;11.904;2023-01-31T07:03:42;-2.40;79.40
64817;DHT22;53289;45.602;11.904;2023-01-31T07:06:08;-2.20;79.70
64817;DHT22;53289;45.602;11.904;2023-01-31T07:08:35;-2.00;79.80
64817;DHT22;53289;45.602;11.904;2023-01-31T07:11:02;-1.80;79.80
64817;DHT22;53289;45.602;11.904;2023-01-31T07:13:29;-1.70;79.90
64817;DHT22;53289;45.602;11.904;2023-01-31T07:15:55;-1.50;79.90
64817;DHT22;53289;45.602;11.904;2023-01-31T07:18:21;-1.30;79.80
64817;DHT22;53289;45.602;11.904;2023-01-31T07:20:49;-1.00;79.80
64817;DHT22;53289;45.602;11.904;2023-01-31T07:23:15;-0.90;79.70
64817;DHT22;53289;45.602;11.904;2023-01-31T07:25:40;-0.60;79.60
64817;DHT22;53289;45.602;11.904;2023-01-31T07:28:06;-0.50;79.30
64817;DHT22;53289;45.602;11.904;2023-01-31T07:30:32;-0.30;79.20
64817;DHT22;53289;45.602;11.904;2023-01-31T07:32:59;0.00;79.20
64817;DHT22;53289;45.602;11.904;2023-01-31T07:35:25;0.10;78.90
64817;DHT22;53289;45.602;11.904;2023-01-31T07:37:51;0.30;78.80
64817;DHT22;53289;45.602;11.904;2023-01-31T07:40:17;0.40;78.50
64817;DHT22;53289;45.602;11.904;2023-01-31T07:42:44;0.50;78.50
64817;DHT22;53289;45.602;11.904;2023-01-31T07:45:11;0.60;78.50
64817;DHT22;53289;45.602;11.904;2023-01-31T07:47:38;0.70;78.60
64817;DHT22;53289;45.602;11.904;2023-01-31T07:50:04;0.80;78.50
64817;DHT22;53289;45.602;11.904;2023-01-31T07:52:31;0.90;78.00
64817;DHT22;53289;45.602;11.904;2023-01-31T07:54:57;1.00;77.80
64817;DHT22;53289;45.602;11.904;2023-01-31T07:57:23;1.10;77.50
64817;DHT22;53289;45.602;11.904;2023-01-31T07:59:48;1.30;77.00
64817;DHT22;53289;45.602;11.904;2023-01-31T08:02:19;1.30;77.20
64817;DHT22;53289;45.602;11.904;2023-01-31T08:05:03;1.40;76.80
64817;DHT22;53289;45.602;11.904;2023-01-31T08:07:29;1.50;76.60
64817;DHT22;53289;45.602;11.904;2023-01-31T08:09:55;1.60;76.40
64817;DHT22;53289;45.602;11.904;2023-01-31T08:12:21;1.70;76.10
64817;DHT22;53289;45.602;11.904;2023-01-31T08:14:47;1.70;76.00
64817;DHT22;53289;45.602;11.904;2023-01-31T08:17:13;1.70;75.90
64817;DHT22;53289;45.602;11.904;2023-01-31T08:19:39;1.80;75.70
64817;DHT22;53289;45.602;11.904;2023-01-31T08:22:04;1.80;75.50
64817;DHT22;53289;45.602;11.904;2023-01-31T08:24:32;1.80;75.60
64817;DHT22;53289;45.602;11.904;2023-01-31T08:26:59;1.90;75.50
64817;DHT22;53289;45.602;11.904;2023-01-31T08:29:25;1.90;75.40
64817;DHT22;53289;45.602;11.904;2023-01-31T08:31:52;2.00;76.00
64817;DHT22;53289;45.602;11.904;2023-01-31T08:34:18;2.10;76.60
64817;DHT22;53289;45.602;11.904;2023-01-31T08:36:44;2.30;76.50
64817;DHT22;53289;45.602;11.904;2023-01-31T08:39:10;2.40;75.50
64817;DHT22;53289;45.602;11.904;2023-01-31T08:41:37;2.50;74.90
64817;DHT22;53289;45.602;11.904;2023-01-31T08:44:04;2.70;74.70
64817;DHT22;53289;45.602;11.904;2023-01-31T08:46:33;2.80;74.80
64817;DHT22;53289;45.602;11.904;2023-01-31T08:49:00;3.00;74.90
64817;DHT22;53289;45.602;11.904;2023-01-31T08:51:27;3.20;75.00
64817;DHT22;53289;45.602;11.904;2023-01-31T08:53:53;3.20;74.20
64817;DHT22;53289;45.602;11.904;2023-01-31T08:56:19;3.40;74.10
64817;DHT22;53289;45.602;11.904;2023-01-31T08:58:51;3.50;74.10
64817;DHT22;53289;45.602;11.904;2023-01-31T09:01:19;3.70;74.10
64817;DHT22;53289;45.602;11.904;2023-01-31T09:03:46;3.90;74.10
64817;DHT22;53289;45.602;11.904;2023-01-31T09:06:20;4.20;74.00
64817;DHT22;53289;45.602;11.904;2023-01-31T09:08:47;4.40;73.40
64817;DHT22;53289;45.602;11.904;2023-01-31T09:11:14;4.50;73.20
64817;DHT22;53289;45.602;11.904;2023-01-31T09:13:42;4.80;73.30
64817;DHT22;53289;45.602;11.904;2023-01-31T09:16:09;5.00;73.00
64817;DHT22;53289;45.602;11.904;2023-01-31T09:18:37;5.20;72.60
64817;DHT22;53289;45.602;11.904;2023-01-31T09:21:15;5.40;72.60
64817;DHT22;53289;45.602;11.904;2023-01-31T09:23:42;5.50;72.50
64817;DHT22;53289;45.602;11.904;2023-01-31T09:26:10;5.70;72.30
64817;DHT22;53289;45.602;11.904;2023-01-31T09:28:36;5.90;71.90
64817;DHT22;53289;45.602;11.904;2023-01-31T09:31:06;5.90;71.80
64817;DHT22;53289;45.602;11.904;2023-01-31T09:33:34;6.10;71.90
64817;DHT22;53289;45.602;11.904;2023-01-31T09:36:05;6.40;71.90
64817;DHT22;53289;45.602;11.904;2023-01-31T09:38:32;6.70;71.40
64817;DHT22;53289;45.602;11.904;2023-01-31T09:41:05;7.00;70.90
64817;DHT22;53289;45.602;11.904;2023-01-31T09:43:39;7.20;70.60
64817;DHT22;53289;45.602;11.904;2023-01-31T09:46:11;7.30;70.30
64817;DHT22;53289;45.602;11.904;2023-01-31T09:48:42;7.40;69.90
64817;DHT22;53289;45.602;11.904;2023-01-31T09:51:11;7.50;69.90
64817;DHT22;53289;45.602;11.904;2023-01-31T09:53:38;7.50;69.70
64817;DHT22;53289;45.602;11.904;2023-01-31T10:06:58;9.10;66.90
64817;DHT22;53289;45.602;11.904;2023-01-31T10:09:36;9.40;66.10
64817;DHT22;53289;45.602;11.904;2023-01-31T10:14:46;9.90;64.90
64817;DHT22;53289;45.602;11.904;2023-01-31T10:19:58;10.30;63.80
64817;DHT22;53289;45.602;11.904;2023-01-31T10:22:42;10.60;64.10
64817;DHT22;53289;45.602;11.904;2023-01-31T10:27:52;11.10;63.50
64817;DHT22;53289;45.602;11.904;2023-01-31T10:30:24;11.40;60.40
64817;DHT22;53289;45.602;11.904;2023-01-31T10:32:59;11.80;59.60
64817;DHT22;53289;45.602;11.904;2023-01-31T10:35:34;12.10;56.00
64817;DHT22;53289;45.602;11.904;2023-01-31T10:40:39;12.70;56.30
64817;DHT22;53289;45.602;11.904;2023-01-31T10:43:17;12.90;56.50
64817;DHT22;53289;45.602;11.904;2023-01-31T10:45:44;13.20;55.40
64817;DHT22;53289;45.602;11.904;2023-01-31T10:48:23;13.40;54.40
64817;DHT22;53289;45.602;11.904;2023-01-31T10:56:42;13.70;51.30
64817;DHT22;53289;45.602;11.904;2023-01-31T10:59:29;13.70;52.20
64817;DHT22;53289;45.602;11.904;2023-01-31T11:01:57;14.00;51.00
64817;DHT22;53289;45.602;11.904;2023-01-31T11:04:30;14.20;50.70
64817;DHT22;53289;45.602;11.904;2023-01-31T11:06:58;14.20;50.40
64817;DHT22;53289;45.602;11.904;2023-01-31T11:09:28;14.30;50.30
64817;DHT22;53289;45.602;11.904;2023-01-31T11:12:01;14.40;49.80
64817;DHT22;53289;45.602;11.904;2023-01-31T11:14:28;14.60;49.00
64817;DHT22;53289;45.602;11.904;2023-01-31T11:17:13;14.80;48.80
64817;DHT22;53289;45.602;11.904;2023-01-31T11:19:50;15.00;48.80
64817;DHT22;53289;45.602;11.904;2023-01-31T11:22:29;15.10;49.20
64817;DHT22;53289;45.602;11.904;2023-01-31T11:24:57;15.00;48.90
64817;DHT22;53289;45.602;11.904;2023-01-31T11:27:41;14.90;48.50
64817;DHT22;53289;45.602;11.904;2023-01-31T11:32:48;14.90;49.40
64817;DHT22;53289;45.602;11.904;2023-01-31T11:38:18;14.80;48.10
64817;DHT22;53289;45.602;11.904;2023-01-31T11:40:47;14.90;48.40
64817;DHT22;53289;45.602;11.904;2023-01-31T11:45:44;15.20;47.40
64817;DHT22;53289;45.602;11.904;2023-01-31T11:48:17;15.40;46.50
64817;DHT22;53289;45.602;11.904;2023-01-31T11:50:45;15.40;46.50
64817;DHT22;53289;45.602;11.904;2023-01-31T11:53:25;15.50;46.60
64817;DHT22;53289;45.602;11.904;2023-01-31T11:55:53;15.60;46.30
64817;DHT22;53289;45.602;11.904;2023-01-31T11:58:33;15.60;47.30
64817;DHT22;53289;45.602;11.904;2023-01-31T12:01:11;15.90;45.30
64817;DHT22;53289;45.602;11.904;2023-01-31T12:03:39;16.00;45.30
64817;DHT22;53289;45.602;11.904;2023-01-31T12:06:09;16.10;45.30
64817;DHT22;53289;45.602;11.904;2023-01-31T12:08:53;16.30;44.20
64817;DHT22;53289;45.602;11.904;2023-01-31T12:13:53;16.20;43.80
64817;DHT22;53289;45.602;11.904;2023-01-31T12:16:26;16.10;44.40
64817;DHT22;53289;45.602;11.904;2023-01-31T12:24:28;15.90;44.70
64817;DHT22;53289;45.602;11.904;2023-01-31T12:27:11;15.70;45.10
64817;DHT22;53289;45.602;11.904;2023-01-31T12:38:10;16.10;45.90
64817;DHT22;53289;45.602;11.904;2023-01-31T12:43:15;16.40;44.60
64817;DHT22;53289;45.602;11.904;2023-01-31T12:59:57;16.10;44.90
64817;DHT22;53289;45.602;11.904;2023-01-31T13:05:30;15.30;47.50
64817;DHT22;53289;45.602;11.904;2023-01-31T13:08:00;14.90;48.40
64817;DHT22;53289;45.602;11.904;2023-01-31T13:10:29;14.80;49.10
64817;DHT22;53289;45.602;11.904;2023-01-31T13:12:58;14.70;49.20
64817;DHT22;53289;45.602;11.904;2023-01-31T13:15:29;14.80;48.60
64817;DHT22;53289;45.602;11.904;2023-01-31T13:18:02;14.90;48.10
64817;DHT22;53289;45.602;11.904;2023-01-31T13:20:35;15.00;47.60
64817;DHT22;53289;45.602;11.904;2023-01-31T13:23:11;14.90;47.40
64817;DHT22;53289;45.602;11.904;2023-01-31T13:25:58;14.70;47.70
64817;DHT22;53289;45.602;11.904;2023-01-31T13:28:35;14.50;48.20
64817;DHT22;53289;45.602;11.904;2023-01-31T13:31:10;14.30;47.80
64817;DHT22;53289;45.602;11.904;2023-01-31T13:34:01;14.00;49.10
64817;DHT22;53289;45.602;11.904;2023-01-31T13:36:46;13.90;49.80
64817;DHT22;53289;45.602;11.904;2023-01-31T13:39:29;13.80;50.00
64817;DHT22;53289;45.602;11.904;2023-01-31T13:41:57;13.70;50.80
64817;DHT22;53289;45.602;11.904;2023-01-31T13:44:23;13.50;51.10
64817;DHT22;53289;45.602;11.904;2023-01-31T13:47:20;13.40;51.30
64817;DHT22;53289;45.602;11.904;2023-01-31T13:50:01;13.40;51.50
64817;DHT22;53289;45.602;11.904;2023-01-31T13:52:30;13.40;51.70
64817;DHT22;53289;45.602;11.904;2023-01-31T13:55:13;13.40;52.00
64817;DHT22;53289;45.602;11.904;2023-01-31T13:57:44;13.50;52.20
64817;DHT22;53289;45.602;11.904;2023-01-31T14:00:39;13.50;51.90
64817;DHT22;53289;45.602;11.904;2023-01-31T14:03:10;13.50;50.80
64817;DHT22;53289;45.602;11.904;2023-01-31T14:11:01;13.40;51.30
64817;DHT22;53289;45.602;11.904;2023-01-31T14:13:37;13.20;51.70
64817;DHT22;53289;45.602;11.904;2023-01-31T14:16:34;13.20;52.00
64817;DHT22;53289;45.602;11.904;2023-01-31T14:22:16;12.90;52.70
64817;DHT22;53289;45.602;11.904;2023-01-31T14:27:22;12.80;53.00
64817;DHT22;53289;45.602;11.904;2023-01-31T14:32:41;12.40;53.70
64817;DHT22;53289;45.602;11.904;2023-01-31T14:40:20;11.90;55.20
64817;DHT22;53289;45.602;11.904;2023-01-31T14:51:52;11.20;56.60
64817;DHT22;53289;45.602;11.904;2023-01-31T14:57:24;10.90;57.20
64817;DHT22;53289;45.602;11.904;2023-01-31T15:00:05;10.70;57.50
64817;DHT22;53289;45.602;11.904;2023-01-31T15:02:47;10.50;57.60
64817;DHT22;53289;45.602;11.904;2023-01-31T15:05:43;10.40;58.10
64817;DHT22;53289;45.602;11.904;2023-01-31T15:13:53;9.80;59.10
64817;DHT22;53289;45.602;11.904;2023-01-31T15:16:20;9.60;59.90
64817;DHT22;53289;45.602;11.904;2023-01-31T15:19:10;9.40;60.10
64817;DHT22;53289;45.602;11.904;2023-01-31T15:21:49;9.30;61.40
64817;DHT22;53289;45.602;11.904;2023-01-31T15:24:40;9.20;61.10
64817;DHT22;53289;45.602;11.904;2023-01-31T15:27:28;9.20;61.20
64817;DHT22;53289;45.602;11.904;2023-01-31T15:35:16;9.20;61.20
64817;DHT22;53289;45.602;11.904;2023-01-31T15:37:45;9.10;61.10
64817;DHT22;53289;45.602;11.904;2023-01-31T15:42:41;8.90;61.20
64817;DHT22;53289;45.602;11.904;2023-01-31T15:48:09;8.80;62.10
64817;DHT22;53289;45.602;11.904;2023-01-31T15:50:36;8.70;61.90
64817;DHT22;53289;45.602;11.904;2023-01-31T15:53:04;8.60;62.20
64817;DHT22;53289;45.602;11.904;2023-01-31T15:55:32;8.40;62.80
64817;DHT22;53289;45.602;11.904;2023-01-31T15:58:00;8.30;62.50
64817;DHT22;53289;45.602;11.904;2023-01-31T16:00:31;8.20;62.90
64817;DHT22;53289;45.602;11.904;2023-01-31T16:02:59;8.10;63.30
64817;DHT22;53289;45.602;11.904;2023-01-31T16:05:28;7.90;64.60
64817;DHT22;53289;45.602;11.904;2023-01-31T16:07:57;7.80;65.00
64817;DHT22;53289;45.602;11.904;2023-01-31T16:10:26;7.60;65.10
64817;DHT22;53289;45.602;11.904;2023-01-31T16:12:54;7.40;65.10
64817;DHT22;53289;45.602;11.904;2023-01-31T16:15:30;7.30;65.10
64817;DHT22;53289;45.602;11.904;2023-01-31T16:18:00;7.20;64.90
64817;DHT22;53289;45.602;11.904;2023-01-31T16:20:45;7.10;65.10
64817;DHT22;53289;45.602;11.904;2023-01-31T16:23:32;7.00;65.00
64817;DHT22;53289;45.602;11.904;2023-01-31T16:26:12;7.00;65.00
64817;DHT22;53289;45.602;11.904;2023-01-31T16:28:45;6.90;65.20
64817;DHT22;53289;45.602;11.904;2023-01-31T16:31:17;6.90;65.30
64817;DHT22;53289;45.602;11.904;2023-01-31T16:39:00;6.50;65.70
64817;DHT22;53289;45.602;11.904;2023-01-31T16:41:49;6.40;66.00
64817;DHT22;53289;45.602;11.904;2023-01-31T16:44:21;6.20;65.90
64817;DHT22;53289;45.602;11.904;2023-01-31T16:46:49;6.10;66.30
64817;DHT22;53289;45.602;11.904;2023-01-31T16:49:38;5.90;66.70
64817;DHT22;53289;45.602;11.904;2023-01-31T16:52:26;5.90;66.70
64817;DHT22;53289;45.602;11.904;2023-01-31T16:54:54;5.80;67.00
64817;DHT22;53289;45.602;11.904;2023-01-31T17:00:02;5.50;67.60
64817;DHT22;53289;45.602;11.904;2023-01-31T17:02:30;5.40;68.00
64817;DHT22;53289;45.602;11.904;2023-01-31T17:04:59;5.30;68.10
64817;DHT22;53289;45.602;11.904;2023-01-31T17:07:36;5.20;68.30
64817;DHT22;53289;45.602;11.904;2023-01-31T17:10:06;5.10;68.20
64817;DHT22;53289;45.602;11.904;2023-01-31T17:12:35;5.10;68.00
64817;DHT22;53289;45.602;11.904;2023-01-31T17:15:10;5.00;68.90
64817;DHT22;53289;45.602;11.904;2023-01-31T17:17:36;4.90;69.00
64817;DHT22;53289;45.602;11.904;2023-01-31T17:20:03;4.90;69.00
64817;DHT22;53289;45.602;11.904;2023-01-31T17:22:29;5.00;69.20
64817;DHT22;53289;45.602;11.904;2023-01-31T17:24:55;4.90;69.70
64817;DHT22;53289;45.602;11.904;2023-01-31T17:27:21;4.70;69.50
64817;DHT22;53289;45.602;11.904;2023-01-31T17:29:47;4.60;70.00
64817;DHT22;53289;45.602;11.904;2023-01-31T17:32:19;4.40;71.00
64817;DHT22;53289;45.602;11.904;2023-01-31T17:34:45;4.30;70.40
64817;DHT22;53289;45.602;11.904;2023-01-31T17:37:13;4.20;70.90
64817;DHT22;53289;45.602;11.904;2023-01-31T17:39:40;4.20;71.00
64817;DHT22;53289;45.602;11.904;2023-01-31T17:42:14;4.10;71.40
64817;DHT22;53289;45.602;11.904;2023-01-31T17:44:41;4.00;70.90
64817;DHT22;53289;45.602;11.904;2023-01-31T17:47:07;4.00;71.10
64817;DHT22;53289;45.602;11.904;2023-01-31T17:49:32;4.00;71.70
64817;DHT22;53289;45.602;11.904;2023-01-31T17:52:00;4.00;71.40
64817;DHT22;53289;45.602;11.904;2023-01-31T17:54:27;3.90;71.50
64817;DHT22;53289;45.602;11.904;2023-01-31T17:56:53;4.00;71.30
64817;DHT22;53289;45.602;11.904;2023-01-31T17:59:19;4.00;71.60
64817;DHT22;53289;45.602;11.904;2023-01-31T18:01:45;4.00;71.90
64817;DHT22;53289;45.602;11.904;2023-01-31T18:04:11;4.00;71.60
64817;DHT22;53289;45.602;11.904;2023-01-31T18:06:37;3.90;71.50
64817;DHT22;53289;45.602;11.904;2023-01-31T18:09:05;3.90;71.60
64817;DHT22;53289;45.602;11.904;2023-01-31T18:11:31;3.80;71.40
64817;DHT22;53289;45.602;11.904;2023-01-31T18:13:58;3.80;71.60
64817;DHT22;53289;45.602;11.904;2023-01-31T18:16:24;3.80;71.90
64817;DHT22;53289;45.602;11.904;2023-01-31T18:18:50;3.80;72.00
64817;DHT22;53289;45.602;11.904;2023-01-31T18:21:18;3.70;72.20
64817;DHT22;53289;45.602;11.904;2023-01-31T18:23:53;3.70;72.50
64817;DHT22;53289;45.602;11.904;2023-01-31T18:26:20;3.70;72.20
64817;DHT22;53289;45.602;11.904;2023-01-31T18:28:46;3.60;74.00
64817;DHT22;53289;45.602;11.904;2023-01-31T18:31:14;3.60;73.90
64817;DHT22;53289;45.602;11.904;2023-01-31T18:33:42;3.60;73.00
64817;DHT22;53289;45.602;11.904;2023-01-31T18:36:13;3.60;73.10